sensor_id;sensor_type;location;lat;lon;timestamp;pressure;altitude;pressure_sealevel;temperature;humidity
22872;BME280;11603;44.910;8.630;2023-04-05T00:01:27;100665.38;;;7.90;71.32
22872;BME280;11603;44.910;8.630;2023-04-05T00:03:57;100661.75;;;7.91;71.11
22872;BME280;11603;44.910;8.630;2023-04-05T00:06:24;100666.09;;;7.93;71.48
22872;BME280;11603;44.910;8.630;2023-04-05T00:09:00;100661.38;;;7.98;70.68
22872;BME280;11603;44.910;8.630;2023-04-05T00:11:31;100661.09;;;8.04;70.67
22872;BME280;11603;44.910;8.630;2023-04-05T00:14:01;100660.91;;;8.07;70.46
22872;BME280;11603;44.910;8.630;2023-04-05T00:16:27;100649.41;;;8.07;70.72
22872;BME280;11603;44.910;8.630;2023-04-05T00:18:55;100654.66;;;8.08;70.96
22872;BME280;11603;44.910;8.630;2023-04-05T00:21:22;100659.06;;;8.09;70.99
22872;BME280;11603;44.910;8.630;2023-04-05T00:23:53;100662.72;;;8.07;71.17
22872;BME280;11603;44.910;8.630;2023-04-05T00:26:20;100666.25;;;8.07;71.00
22872;BME280;11603;44.910;8.630;2023-04-05T00:28:51;100668.03;;;8.07;71.26
22872;BME280;11603;44.910;8.630;2023-04-05T00:31:17;100664.84;;;8.00;71.52
22872;BME280;11603;44.910;8.630;2023-04-05T00:33:43;100671.53;;;7.90;71.95
22872;BME280;11603;44.910;8.630;2023-04-05T00:36:14;100679.44;;;7.75;73.16
22872;BME280;11603;44.910;8.630;2023-04-05T00:38:40;100677.50;;;7.59;75.06
22872;BME280;11603;44.910;8.630;2023-04-05T00:41:06;100678.84;;;7.51;76.71
22872;BME280;11603;44.910;8.630;2023-04-05T00:43:32;100677.97;;;7.50;78.16
22872;BME280;11603;44.910;8.630;2023-04-05T00:45:57;100684.22;;;7.49;78.80
22872;BME280;11603;44.910;8.630;2023-04-05T00:48:23;100677.19;;;7.48;79.54
22872;BME280;11603;44.910;8.630;2023-04-05T00:50:50;100677.09;;;7.50;81.48
22872;BME280;11603;44.910;8.630;2023-04-05T00:53:20;100680.69;;;7.49;82.39
22872;BME280;11603;44.910;8.630;2023-04-05T00:55:47;100676.34;;;7.48;82.52
22872;BME280;11603;44.910;8.630;2023-04-05T00:58:15;100673.69;;;7.48;83.09
22872;BME280;11603;44.910;8.630;2023-04-05T01:03:28;100674.09;;;7.39;81.36
22872;BME280;11603;44.910;8.630;2023-04-05T01:06:19;100668.94;;;7.36;81.72
22872;BME280;11603;44.910;8.630;2023-04-05T01:08:59;100666.97;;;7.39;82.50
22872;BME280;11603;44.910;8.630;2023-04-05T01:11:30;100669.72;;;7.38;82.14
22872;BME280;11603;44.910;8.630;2023-04-05T01:14:00;100666.63;;;7.28;83.07
22872;BME280;11603;44.910;8.630;2023-04-05T01:16:27;100662.97;;;7.31;82.76
22872;BME280;11603;44.910;8.630;2023-04-05T01:18:54;100665.63;;;7.31;83.15
22872;BME280;11603;44.910;8.630;2023-04-05T01:26:57;100671.81;;;7.31;88.77
22872;BME280;11603;44.910;8.630;2023-04-05T01:29:49;100672.97;;;7.26;91.33
22872;BME280;11603;44.910;8.630;2023-04-05T01:32:29;100672.97;;;7.26;91.66
22872;BME280;11603;44.910;8.630;2023-04-05T01:37:37;100676.41;;;7.09;93.69
22872;BME280;11603;44.910;8.630;2023-04-05T01:40:03;100680.44;;;6.99;94.65
22872;BME280;11603;44.910;8.630;2023-04-05T01:42:30;100681.56;;;6.93;95.68
22872;BME280;11603;44.910;8.630;2023-04-05T01:44:56;100680.91;;;6.88;96.83
22872;BME280;11603;44.910;8.630;2023-04-05T01:47:22;100677.44;;;6.86;97.47
22872;BME280;11603;44.910;8.630;2023-04-05T01:49:48;100675.66;;;6.87;97.07
22872;BME280;11603;44.910;8.630;2023-04-05T01:52:14;100682.75;;;6.86;97.67
22872;BME280;11603;44.910;8.630;2023-04-05T01:54:40;100672.44;;;6.80;98.25
22872;BME280;11603;44.910;8.630;2023-04-05T01:57:09;100682.31;;;6.76;97.68
22872;BME280;11603;44.910;8.630;2023-04-05T01:59:34;100677.81;;;6.78;98.73
22872;BME280;11603;44.910;8.630;2023-04-05T02:02:02;100684.22;;;6.74;98.92
22872;BME280;11603;44.910;8.630;2023-04-05T02:04:28;100681.81;;;6.68;100.00
22872;BME280;11603;44.910;8.630;2023-04-05T02:06:53;100683.94;;;6.60;100.00
22872;BME280;11603;44.910;8.630;2023-04-05T02:09:19;100690.47;;;6.53;100.00
22872;BME280;11603;44.910;8.630;2023-04-05T02:11:45;100690.78;;;6.46;100.00
22872;BME280;11603;44.910;8.630;2023-04-05T02:14:10;100687.38;;;6.44;100.00
22872;BME280;11603;44.910;8.630;2023-04-05T02:16:36;100694.53;;;6.42;100.00
22872;BME280;11603;44.910;8.630;2023-04-05T02:19:02;100693.66;;;6.41;100.00
22872;BME280;11603;44.910;8.630;2023-04-05T02:21:28;100692.69;;;6.44;100.00
22872;BME280;11603;44.910;8.630;2023-04-05T02:23:56;100692.72;;;6.42;100.00
22872;BME280;11603;44.910;8.630;2023-04-05T02:26:21;100692.84;;;6.39;100.00
22872;BME280;11603;44.910;8.630;2023-04-05T02:28:47;100695.50;;;6.39;100.00
22872;BME280;11603;44.910;8.630;2023-04-05T02:31:13;100687.53;;;6.39;100.00
22872;BME280;11603;44.910;8.630;2023-04-05T02:33:40;100687.63;;;6.37;100.00
22872;BME280;11603;44.910;8.630;2023-04-05T02:36:07;100690.94;;;6.43;100.00
22872;BME280;11603;44.910;8.630;2023-04-05T02:38:34;100690.78;;;6.46;100.00
22872;BME280;11603;44.910;8.630;2023-04-05T02:40:59;100696.84;;;6.49;100.00
22872;BME280;11603;44.910;8.630;2023-04-05T02:43:25;100697.84;;;6.47;100.00
22872;BME280;11603;44.910;8.630;2023-04-05T02:45:51;100691.97;;;6.38;100.00
22872;BME280;11603;44.910;8.630;2023-04-05T02:48:18;100688.34;;;6.41;100.00
22872;BME280;11603;44.910;8.630;2023-04-05T02:50:50;100687.41;;;6.42;100.00
22872;BME280;11603;44.910;8.630;2023-04-05T02:53:17;100687.47;;;6.41;100.00
22872;BME280;11603;44.910;8.630;2023-04-05T02:55:55;100687.47;;;6.41;100.00
22872;BME280;11603;44.910;8.630;2023-04-05T02:58:22;100691.00;;;6.41;100.00
22872;BME280;11603;44.910;8.630;2023-04-05T03:00:49;100690.03;;;6.44;100.00
22872;BME280;11603;44.910;8.630;2023-04-05T03:03:25;100683.75;;;6.45;100.00
22872;BME280;11603;44.910;8.630;2023-04-05T03:05:58;100683.91;;;6.42;97.30
22872;BME280;11603;44.910;8.630;2023-04-05T03:08:37;100683.75;;;6.45;95.10
22872;BME280;11603;44.910;8.630;2023-04-05T03:11:04;100679.31;;;6.45;94.70
22872;BME280;11603;44.910;8.630;2023-04-05T03:13:31;100690.69;;;6.49;93.64
22872;BME280;11603;44.910;8.630;2023-04-05T03:15:57;100685.88;;;6.57;91.13
22872;BME280;11603;44.910;8.630;2023-04-05T03:18:26;100688.47;;;6.58;86.59
22872;BME280;11603;44.910;8.630;2023-04-05T03:20:57;100686.47;;;6.63;83.65
22872;BME280;11603;44.910;8.630;2023-04-05T03:23:25;100688.22;;;6.64;81.52
22872;BME280;11603;44.910;8.630;2023-04-05T03:28:26;100691.66;;;6.66;81.90
22872;BME280;11603;44.910;8.630;2023-04-05T03:30:57;100703.34;;;6.62;84.10
22872;BME280;11603;44.910;8.630;2023-04-05T03:33:23;100700.56;;;6.45;87.00
22872;BME280;11603;44.910;8.630;2023-04-05T03:35:51;100696.84;;;6.29;89.87
22872;BME280;11603;44.910;8.630;2023-04-05T03:38:17;100702.22;;;6.27;90.05
22872;BME280;11603;44.910;8.630;2023-04-05T03:40:55;100706.00;;;6.22;91.07
22872;BME280;11603;44.910;8.630;2023-04-05T03:43:20;100701.69;;;6.19;92.27
22872;BME280;11603;44.910;8.630;2023-04-05T03:45:46;100702.88;;;6.12;93.12
22872;BME280;11603;44.910;8.630;2023-04-05T03:48:11;100701.94;;;6.13;93.60
22872;BME280;11603;44.910;8.630;2023-04-05T03:50:37;100703.13;;;6.06;93.86
22872;BME280;11603;44.910;8.630;2023-04-05T03:53:02;100698.81;;;6.04;93.75
22872;BME280;11603;44.910;8.630;2023-04-05T03:55:28;100706.97;;;5.99;94.06
22872;BME280;11603;44.910;8.630;2023-04-05T03:57:55;100705.19;;;6.00;94.60
22872;BME280;11603;44.910;8.630;2023-04-05T04:00:33;100693.06;;;5.92;95.27
22872;BME280;11603;44.910;8.630;2023-04-05T04:03:11;100713.44;;;5.92;95.77
22872;BME280;11603;44.910;8.630;2023-04-05T04:05:41;100706.75;;;5.82;96.46
22872;BME280;11603;44.910;8.630;2023-04-05T04:08:08;100708.72;;;5.77;97.49
22872;BME280;11603;44.910;8.630;2023-04-05T04:10:35;100708.88;;;5.74;97.15
22872;BME280;11603;44.910;8.630;2023-04-05T04:13:01;100717.25;;;5.63;98.04
22872;BME280;11603;44.910;8.630;2023-04-05T04:15:30;100713.97;;;5.57;98.30
22872;BME280;11603;44.910;8.630;2023-04-05T04:18:20;100714.44;;;5.44;99.95
22872;BME280;11603;44.910;8.630;2023-04-05T04:21:05;100719.06;;;5.39;100.00
22872;BME280;11603;44.910;8.630;2023-04-05T04:23:50;100715.00;;;5.31;100.00
22872;BME280;11603;44.910;8.630;2023-04-05T04:26:42;100713.44;;;5.25;100.00
22872;BME280;11603;44.910;8.630;2023-04-05T04:29:37;100723.59;;;5.14;100.00
22872;BME280;11603;44.910;8.630;2023-04-05T04:32:36;100725.63;;;5.07;100.00
22872;BME280;11603;44.910;8.630;2023-04-05T04:35:34;100717.72;;;5.06;100.00
22872;BME280;11603;44.910;8.630;2023-04-05T04:38:30;100726.53;;;5.06;100.00
22872;BME280;11603;44.910;8.630;2023-04-05T04:41:17;100731.41;;;4.94;100.00
22872;BME280;11603;44.910;8.630;2023-04-05T04:44:07;100731.41;;;4.94;100.00
22872;BME280;11603;44.910;8.630;2023-04-05T04:46:41;100733.03;;;4.98;100.00
22872;BME280;11603;44.910;8.630;2023-04-05T04:49:33;100728.59;;;4.98;100.00
22872;BME280;11603;44.910;8.630;2023-04-05T04:51:59;100735.50;;;5.02;100.00
22872;BME280;11603;44.910;8.630;2023-04-05T04:54:24;100738.88;;;5.07;100.00
22872;BME280;11603;44.910;8.630;2023-04-05T04:56:50;100736.97;;;5.11;100.00
22872;BME280;11603;44.910;8.630;2023-04-05T04:59:15;100741.22;;;5.15;100.00
22872;BME280;11603;44.910;8.630;2023-04-05T05:01:44;100744.56;;;5.20;100.00
22872;BME280;11603;44.910;8.630;2023-04-05T05:04:09;100744.53;;;5.22;100.00
22872;BME280;11603;44.910;8.630;2023-04-05T05:06:37;100741.91;;;5.20;100.00
22872;BME280;11603;44.910;8.630;2023-04-05T05:09:03;100745.25;;;5.25;100.00
22872;BME280;11603;44.910;8.630;2023-04-05T05:11:32;100747.03;;;5.25;100.00
22872;BME280;11603;44.910;8.630;2023-04-05T05:13:57;100752.16;;;5.29;100.00
22872;BME280;11603;44.910;8.630;2023-04-05T05:16:25;100754.50;;;5.38;100.00
22872;BME280;11603;44.910;8.630;2023-04-05T05:18:52;100750.63;;;5.47;100.00
22872;BME280;11603;44.910;8.630;2023-04-05T05:21:19;100758.16;;;5.58;100.00
22872;BME280;11603;44.910;8.630;2023-04-05T05:23:51;100746.75;;;5.77;100.00
22872;BME280;11603;44.910;8.630;2023-04-05T05:26:17;100759.00;;;6.25;98.31
22872;BME280;11603;44.910;8.630;2023-04-05T05:28:42;100748.19;;;6.70;93.80
22872;BME280;11603;44.910;8.630;2023-04-05T05:31:08;100747.56;;;7.04;89.45
22872;BME280;11603;44.910;8.630;2023-04-05T05:33:35;100745.28;;;7.34;85.19
22872;BME280;11603;44.910;8.630;2023-04-05T05:36:00;100745.66;;;7.45;82.35
22872;BME280;11603;44.910;8.630;2023-04-05T05:38:27;100743.38;;;7.37;80.23
22872;BME280;11603;44.910;8.630;2023-04-05T05:40:56;100748.00;;;7.13;78.37
22872;BME280;11603;44.910;8.630;2023-04-05T05:43:22;100749.28;;;7.05;81.88
22872;BME280;11603;44.910;8.630;2023-04-05T05:45:47;100749.19;;;6.88;83.68
22872;BME280;11603;44.910;8.630;2023-04-05T05:48:13;100758.22;;;6.84;84.51
22872;BME280;11603;44.910;8.630;2023-04-05T05:50:38;100756.69;;;6.78;85.61
22872;BME280;11603;44.910;8.630;2023-04-05T05:53:04;100764.88;;;6.73;85.93
22872;BME280;11603;44.910;8.630;2023-04-05T05:55:30;100767.84;;;6.66;86.73
22872;BME280;11603;44.910;8.630;2023-04-05T05:57:56;100775.78;;;6.67;86.51
22872;BME280;11603;44.910;8.630;2023-04-05T06:00:22;100772.41;;;6.64;88.25
22872;BME280;11603;44.910;8.630;2023-04-05T06:02:48;100768.72;;;6.66;88.79
22872;BME280;11603;44.910;8.630;2023-04-05T06:05:14;100773.97;;;6.68;90.35
22872;BME280;11603;44.910;8.630;2023-04-05T06:07:41;100775.72;;;6.69;92.19
22872;BME280;11603;44.910;8.630;2023-04-05T06:10:07;100772.59;;;6.79;93.99
22872;BME280;11603;44.910;8.630;2023-04-05T06:12:34;100774.97;;;6.86;95.38
22872;BME280;11603;44.910;8.630;2023-04-05T06:15:00;100782.66;;;6.92;95.59
22872;BME280;11603;44.910;8.630;2023-04-05T06:17:27;100789.41;;;7.00;95.00
22872;BME280;11603;44.910;8.630;2023-04-05T06:19:52;100787.44;;;7.04;94.50
22872;BME280;11603;44.910;8.630;2023-04-05T06:22:18;100783.47;;;6.94;95.40
22872;BME280;11603;44.910;8.630;2023-04-05T06:24:44;100787.59;;;7.01;97.49
22872;BME280;11603;44.910;8.630;2023-04-05T06:27:09;100784.59;;;7.08;96.94
22872;BME280;11603;44.910;8.630;2023-04-05T06:29:35;100780.59;;;7.18;96.91
22872;BME280;11603;44.910;8.630;2023-04-05T06:32:00;100783.19;;;7.20;100.00
22872;BME280;11603;44.910;8.630;2023-04-05T06:34:26;100787.38;;;7.26;99.76
22872;BME280;11603;44.910;8.630;2023-04-05T06:36:52;100788.22;;;7.26;100.00
22872;BME280;11603;44.910;8.630;2023-04-05T06:39:17;100786.28;;;7.30;100.00
22872;BME280;11603;44.910;8.630;2023-04-05T06:41:43;100789.16;;;7.44;100.00
22872;BME280;11603;44.910;8.630;2023-04-05T06:44:09;100787.63;;;7.58;99.76
22872;BME280;11603;44.910;8.630;2023-04-05T06:46:35;100784.22;;;7.74;96.04
22872;BME280;11603;44.910;8.630;2023-04-05T06:49:00;100787.53;;;7.79;90.73
22872;BME280;11603;44.910;8.630;2023-04-05T06:51:26;100790.91;;;7.82;87.41
22872;BME280;11603;44.910;8.630;2023-04-05T06:53:53;100787.78;;;7.91;84.66
22872;BME280;11603;44.910;8.630;2023-04-05T06:56:19;100783.75;;;8.01;83.87
22872;BME280;11603;44.910;8.630;2023-04-05T06:58:46;100785.59;;;8.18;82.86
22872;BME280;11603;44.910;8.630;2023-04-05T07:01:12;100778.88;;;8.28;79.08
22872;BME280;11603;44.910;8.630;2023-04-05T07:03:37;100783.06;;;8.34;76.47
22872;BME280;11603;44.910;8.630;2023-04-05T07:06:03;100779.81;;;8.46;75.39
22872;BME280;11603;44.910;8.630;2023-04-05T07:08:30;100788.88;;;8.59;73.25
22872;BME280;11603;44.910;8.630;2023-04-05T07:10:56;100782.63;;;8.60;71.42
22872;BME280;11603;44.910;8.630;2023-04-05T07:13:22;100782.50;;;8.63;71.73
22872;BME280;11603;44.910;8.630;2023-04-05T07:15:48;100779.09;;;8.60;72.25
22872;BME280;11603;44.910;8.630;2023-04-05T07:18:15;100780.50;;;8.67;71.73
22872;BME280;11603;44.910;8.630;2023-04-05T07:20:41;100783.56;;;8.76;71.18
22872;BME280;11603;44.910;8.630;2023-04-05T07:23:06;100785.06;;;8.82;70.76
22872;BME280;11603;44.910;8.630;2023-04-05T07:25:32;100788.28;;;8.88;70.62
22872;BME280;11603;44.910;8.630;2023-04-05T07:27:57;100779.78;;;8.98;69.19
22872;BME280;11603;44.910;8.630;2023-04-05T07:30:25;100782.22;;;9.02;69.08
22872;BME280;11603;44.910;8.630;2023-04-05T07:32:51;100782.22;;;9.02;68.37
22872;BME280;11603;44.910;8.630;2023-04-05T07:35:16;100779.03;;;9.11;66.40
22872;BME280;11603;44.910;8.630;2023-04-05T07:37:42;100775.03;;;9.20;65.84
22872;BME280;11603;44.910;8.630;2023-04-05T07:40:08;100788.47;;;9.18;64.99
22872;BME280;11603;44.910;8.630;2023-04-05T07:42:35;100788.28;;;9.21;65.24
22872;BME280;11603;44.910;8.630;2023-04-05T07:45:01;100788.47;;;9.18;66.54
22872;BME280;11603;44.910;8.630;2023-04-05T07:47:26;100781.06;;;9.23;66.33
22872;BME280;11603;44.910;8.630;2023-04-05T07:49:52;100786.78;;;9.33;65.97
22872;BME280;11603;44.910;8.630;2023-04-05T07:52:17;100793.84;;;9.34;63.38
22872;BME280;11603;44.910;8.630;2023-04-05T07:54:43;100787.19;;;9.25;61.86
22872;BME280;11603;44.910;8.630;2023-04-05T07:57:15;100789.38;;;9.34;61.85
22872;BME280;11603;44.910;8.630;2023-04-05T07:59:41;100792.06;;;9.50;61.05
22872;BME280;11603;44.910;8.630;2023-04-05T08:02:07;100788.88;;;9.59;60.68
22872;BME280;11603;44.910;8.630;2023-04-05T08:04:32;100779.06;;;9.60;60.76
22872;BME280;11603;44.910;8.630;2023-04-05T08:06:58;100783.75;;;9.72;60.20
22872;BME280;11603;44.910;8.630;2023-04-05T08:09:23;100783.22;;;9.81;59.74
22872;BME280;11603;44.910;8.630;2023-04-05T08:11:49;100794.69;;;9.99;59.13
22872;BME280;11603;44.910;8.630;2023-04-05T08:14:14;100786.66;;;10.14;59.00
22872;BME280;11603;44.910;8.630;2023-04-05T08:16:41;100793.66;;;10.17;59.39
22872;BME280;11603;44.910;8.630;2023-04-05T08:19:07;100782.69;;;10.37;58.74
22872;BME280;11603;44.910;8.630;2023-04-05T08:21:32;100792.41;;;10.54;58.28
22872;BME280;11603;44.910;8.630;2023-04-05T08:24:00;100777.53;;;10.64;57.80
22872;BME280;11603;44.910;8.630;2023-04-05T08:26:26;100782.16;;;10.76;57.71
22872;BME280;11603;44.910;8.630;2023-04-05T08:28:52;100782.00;;;10.63;57.24
22872;BME280;11603;44.910;8.630;2023-04-05T08:31:18;100784.22;;;10.57;57.38
22872;BME280;11603;44.910;8.630;2023-04-05T08:33:43;100784.97;;;10.59;57.44
22872;BME280;11603;44.910;8.630;2023-04-05T08:36:10;100792.00;;;10.46;57.11
22872;BME280;11603;44.910;8.630;2023-04-05T08:38:35;100792.75;;;10.48;56.32
22872;BME280;11603;44.910;8.630;2023-04-05T08:41:17;100793.47;;;10.51;55.67
22872;BME280;11603;44.910;8.630;2023-04-05T08:46:17;100794.69;;;10.76;53.88
22872;BME280;11603;44.910;8.630;2023-04-05T08:48:45;100789.91;;;10.81;54.04
22872;BME280;11603;44.910;8.630;2023-04-05T08:51:10;100789.63;;;10.85;53.63
22872;BME280;11603;44.910;8.630;2023-04-05T08:53:36;100790.44;;;11.01;53.15
22872;BME280;11603;44.910;8.630;2023-04-05T08:56:02;100787.59;;;11.19;53.90
22872;BME280;11603;44.910;8.630;2023-04-05T08:58:30;100793.59;;;11.22;52.67
22872;BME280;11603;44.910;8.630;2023-04-05T09:00:57;100787.50;;;11.34;52.82
22872;BME280;11603;44.910;8.630;2023-04-05T09:03:29;100802.50;;;11.23;54.31
22872;BME280;11603;44.910;8.630;2023-04-05T09:05:57;100792.94;;;11.33;55.34
22872;BME280;11603;44.910;8.630;2023-04-05T09:08:23;100789.31;;;11.34;55.79
22872;BME280;11603;44.910;8.630;2023-04-05T09:10:52;100800.09;;;11.46;56.20
22872;BME280;11603;44.910;8.630;2023-04-05T09:13:18;100792.38;;;11.56;56.13
22872;BME280;11603;44.910;8.630;2023-04-05T09:15:43;100793.81;;;11.47;55.83
22872;BME280;11603;44.910;8.630;2023-04-05T09:18:10;100784.34;;;11.56;55.95
22872;BME280;11603;44.910;8.630;2023-04-05T09:20:36;100792.28;;;11.72;56.08
22872;BME280;11603;44.910;8.630;2023-04-05T09:23:01;100792.53;;;11.67;56.09
22872;BME280;11603;44.910;8.630;2023-04-05T09:25:40;100784.06;;;11.61;55.76
22872;BME280;11603;44.910;8.630;2023-04-05T09:28:09;100788.38;;;11.77;55.48
22872;BME280;11603;44.910;8.630;2023-04-05T09:30:36;100778.44;;;12.06;54.74
22872;BME280;11603;44.910;8.630;2023-04-05T09:33:06;100777.53;;;12.20;54.26
22872;BME280;11603;44.910;8.630;2023-04-05T09:35:32;100780.66;;;12.26;52.86
22872;BME280;11603;44.910;8.630;2023-04-05T09:38:01;100770.03;;;12.25;52.78
22872;BME280;11603;44.910;8.630;2023-04-05T09:40:47;100766.06;;;12.18;50.77
22872;BME280;11603;44.910;8.630;2023-04-05T09:43:37;100759.28;;;12.39;50.77
22872;BME280;11603;44.910;8.630;2023-04-05T09:46:02;100762.28;;;12.47;50.33
22872;BME280;11603;44.910;8.630;2023-04-05T09:48:47;100764.50;;;12.28;50.13
22872;BME280;11603;44.910;8.630;2023-04-05T09:51:14;100764.56;;;12.26;48.96
22872;BME280;11603;44.910;8.630;2023-04-05T09:54:01;100762.84;;;12.52;49.48
22872;BME280;11603;44.910;8.630;2023-04-05T09:56:29;100760.91;;;12.54;49.27
22872;BME280;11603;44.910;8.630;2023-04-05T09:59:05;100753.09;;;12.64;49.68
22872;BME280;11603;44.910;8.630;2023-04-05T10:01:32;100749.47;;;12.65;49.38
22872;BME280;11603;44.910;8.630;2023-04-05T10:03:59;100748.91;;;12.72;49.33
22872;BME280;11603;44.910;8.630;2023-04-05T10:06:41;100750.34;;;13.03;49.60
22872;BME280;11603;44.910;8.630;2023-04-05T10:09:08;100747.97;;;12.73;49.25
22872;BME280;11603;44.910;8.630;2023-04-05T10:11:35;100753.09;;;12.64;50.80
22872;BME280;11603;44.910;8.630;2023-04-05T10:14:03;100741.00;;;12.84;51.36
22872;BME280;11603;44.910;8.630;2023-04-05T10:16:31;100741.31;;;13.04;49.90
22872;BME280;11603;44.910;8.630;2023-04-05T10:18:58;100744.53;;;12.84;49.33
22872;BME280;11603;44.910;8.630;2023-04-05T10:21:29;100748.88;;;13.12;49.11
22872;BME280;11603;44.910;8.630;2023-04-05T10:29:24;100733.19;;;13.31;47.00
22872;BME280;11603;44.910;8.630;2023-04-05T10:32:27;100733.59;;;13.38;48.26
22872;BME280;11603;44.910;8.630;2023-04-05T10:35:01;100731.16;;;13.71;47.62
22872;BME280;11603;44.910;8.630;2023-04-05T10:37:44;100724.09;;;13.94;47.15
22872;BME280;11603;44.910;8.630;2023-04-05T10:40:19;100721.22;;;14.08;47.20
22872;BME280;11603;44.910;8.630;2023-04-05T10:42:46;100718.97;;;14.15;44.87
22872;BME280;11603;44.910;8.630;2023-04-05T10:45:16;100717.19;;;14.26;43.61
22872;BME280;11603;44.910;8.630;2023-04-05T10:47:54;100716.56;;;14.47;43.91
22872;BME280;11603;44.910;8.630;2023-04-05T10:50:24;100720.97;;;14.48;44.41
22872;BME280;11603;44.910;8.630;2023-04-05T10:52:51;100719.91;;;14.61;43.68
22872;BME280;11603;44.910;8.630;2023-04-05T10:55:18;100701.09;;;14.72;43.99
22872;BME280;11603;44.910;8.630;2023-04-05T10:57:46;100715.84;;;14.08;43.86
22872;BME280;11603;44.910;8.630;2023-04-05T11:00:14;100717.81;;;14.06;43.16
22872;BME280;11603;44.910;8.630;2023-04-05T11:02:40;100712.00;;;14.12;42.85
22872;BME280;11603;44.910;8.630;2023-04-05T11:05:09;100708.53;;;14.34;42.56
22872;BME280;11603;44.910;8.630;2023-04-05T11:07:52;100702.59;;;13.94;42.88
22872;BME280;11603;44.910;8.630;2023-04-05T11:10:23;100698.31;;;14.39;42.25
22872;BME280;11603;44.910;8.630;2023-04-05T11:15:30;100694.03;;;14.24;42.99
22872;BME280;11603;44.910;8.630;2023-04-05T11:18:22;100699.47;;;14.59;42.44
22872;BME280;11603;44.910;8.630;2023-04-05T11:23:21;100684.06;;;14.72;42.04
22872;BME280;11603;44.910;8.630;2023-04-05T11:28:28;100682.66;;;15.35;40.98
22872;BME280;11603;44.910;8.630;2023-04-05T11:30:55;100675.91;;;15.29;40.74
22872;BME280;11603;44.910;8.630;2023-04-05T11:33:37;100674.56;;;15.46;40.78
22872;BME280;11603;44.910;8.630;2023-04-05T11:36:04;100671.63;;;15.38;41.02
22872;BME280;11603;44.910;8.630;2023-04-05T11:38:30;100664.31;;;15.17;41.26
22872;BME280;11603;44.910;8.630;2023-04-05T11:43:38;100669.06;;;15.47;40.56
22872;BME280;11603;44.910;8.630;2023-04-05T11:46:03;100664.88;;;15.65;40.12
22872;BME280;11603;44.910;8.630;2023-04-05T11:48:30;100656.84;;;16.18;39.45
22872;BME280;11603;44.910;8.630;2023-04-05T11:50:56;100665.88;;;15.09;40.23
22872;BME280;11603;44.910;8.630;2023-04-05T11:53:22;100666.44;;;14.68;40.95
22872;BME280;11603;44.910;8.630;2023-04-05T11:55:49;100665.00;;;15.08;40.24
22872;BME280;11603;44.910;8.630;2023-04-05T11:58:17;100655.19;;;15.41;39.86
22872;BME280;11603;44.910;8.630;2023-04-05T12:00:44;100644.03;;;15.45;39.66
22872;BME280;11603;44.910;8.630;2023-04-05T12:03:14;100647.50;;;15.58;39.94
22872;BME280;11603;44.910;8.630;2023-04-05T12:05:52;100647.03;;;15.53;40.09
22872;BME280;11603;44.910;8.630;2023-04-05T12:08:19;100639.78;;;15.32;39.97
22872;BME280;11603;44.910;8.630;2023-04-05T12:10:56;100644.81;;;15.14;40.08
22872;BME280;11603;44.910;8.630;2023-04-05T12:13:31;100638.75;;;15.66;40.31
22872;BME280;11603;44.910;8.630;2023-04-05T12:16:06;100636.94;;;15.98;39.74
22872;BME280;11603;44.910;8.630;2023-04-05T12:18:34;100625.38;;;16.07;38.95
22872;BME280;11603;44.910;8.630;2023-04-05T12:21:11;100626.22;;;16.08;38.70
22872;BME280;11603;44.910;8.630;2023-04-05T12:23:37;100626.66;;;16.24;38.12
22872;BME280;11603;44.910;8.630;2023-04-05T12:26:03;100617.97;;;16.21;38.06
22872;BME280;11603;44.910;8.630;2023-04-05T12:34:03;100613.03;;;15.62;38.76
22872;BME280;11603;44.910;8.630;2023-04-05T12:36:30;100619.38;;;15.72;39.45
22872;BME280;11603;44.910;8.630;2023-04-05T12:38:59;100614.97;;;15.71;38.04
22872;BME280;11603;44.910;8.630;2023-04-05T12:41:29;100608.25;;;15.65;38.26
22872;BME280;11603;44.910;8.630;2023-04-05T12:43:54;100612.75;;;16.08;37.71
22872;BME280;11603;44.910;8.630;2023-04-05T12:46:42;100605.63;;;16.07;38.23
22872;BME280;11603;44.910;8.630;2023-04-05T12:49:13;100611.75;;;16.09;38.19
22872;BME280;11603;44.910;8.630;2023-04-05T12:51:43;100610.69;;;16.00;38.52
22872;BME280;11603;44.910;8.630;2023-04-05T12:54:22;100595.56;;;16.09;38.56
22872;BME280;11603;44.910;8.630;2023-04-05T12:56:52;100600.97;;;16.50;38.60
22872;BME280;11603;44.910;8.630;2023-04-05T12:59:22;100607.22;;;16.72;37.66
22872;BME280;11603;44.910;8.630;2023-04-05T13:01:48;100599.22;;;16.91;37.04
22872;BME280;11603;44.910;8.630;2023-04-05T13:04:13;100592.66;;;17.24;36.05
22872;BME280;11603;44.910;8.630;2023-04-05T13:06:39;100592.81;;;16.92;36.46
22872;BME280;11603;44.910;8.630;2023-04-05T13:09:05;100583.13;;;16.59;37.24
22872;BME280;11603;44.910;8.630;2023-04-05T13:11:30;100585.22;;;16.76;37.07
22872;BME280;11603;44.910;8.630;2023-04-05T13:13:56;100579.13;;;16.74;37.54
22872;BME280;11603;44.910;8.630;2023-04-05T13:16:22;100567.16;;;16.77;37.12
22872;BME280;11603;44.910;8.630;2023-04-05T13:18:47;100573.06;;;16.61;37.72
22872;BME280;11603;44.910;8.630;2023-04-05T13:21:13;100569.25;;;16.22;37.28
22872;BME280;11603;44.910;8.630;2023-04-05T13:23:39;100565.69;;;16.42;36.93
22872;BME280;11603;44.910;8.630;2023-04-05T13:26:06;100561.66;;;16.58;36.49
22872;BME280;11603;44.910;8.630;2023-04-05T13:28:32;100555.88;;;16.62;36.80
22872;BME280;11603;44.910;8.630;2023-04-05T13:30:58;100565.06;;;16.39;37.94
22872;BME280;11603;44.910;8.630;2023-04-05T13:33:24;100563.47;;;16.06;38.09
22872;BME280;11603;44.910;8.630;2023-04-05T13:35:49;100565.53;;;15.82;38.72
22872;BME280;11603;44.910;8.630;2023-04-05T13:38:15;100563.41;;;15.64;38.39
22872;BME280;11603;44.910;8.630;2023-04-05T13:40:41;100565.72;;;14.93;39.34
22872;BME280;11603;44.910;8.630;2023-04-05T13:43:07;100570.13;;;14.82;39.73